sensor_id;sensor_type;location;lat;lon;timestamp;P1;durP1;ratioP1;P2;durP2;ratioP2
61905;SDS011;47863;55.766;37.672;2022-09-09T00:00:38;4.10;;;1.48;;
61905;SDS011;47863;55.766;37.672;2022-09-09T00:05:54;3.97;;;1.77;;
61905;SDS011;47863;55.766;37.672;2022-09-09T00:08:40;3.03;;;1.70;;
61905;SDS011;47863;55.766;37.672;2022-09-09T00:13:46;3.08;;;1.40;;
61905;SDS011;47863;55.766;37.672;2022-09-09T00:16:19;4.78;;;1.60;;
61905;SDS011;47863;55.766;37.672;2022-09-09T00:21:38;3.17;;;1.70;;
61905;SDS011;47863;55.766;37.672;2022-09-09T00:27:07;2.38;;;1.70;;
61905;SDS011;47863;55.766;37.672;2022-09-09T00:29:47;4.50;;;1.98;;
61905;SDS011;47863;55.766;37.672;2022-09-09T00:32:22;4.82;;;1.48;;
61905;SDS011;47863;55.766;37.672;2022-09-09T00:34:54;2.38;;;1.70;;
61905;SDS011;47863;55.766;37.672;2022-09-09T00:37:25;3.20;;;1.63;;
61905;SDS011;47863;55.766;37.672;2022-09-09T00:39:51;4.10;;;1.50;;
61905;SDS011;47863;55.766;37.672;2022-09-09T00:47:52;4.97;;;1.95;;
61905;SDS011;47863;55.766;37.672;2022-09-09T00:55:19;4.45;;;1.60;;
61905;SDS011;47863;55.766;37.672;2022-09-09T00:57:53;3.05;;;1.60;;
61905;SDS011;47863;55.766;37.672;2022-09-09T01:00:21;4.20;;;1.80;;
61905;SDS011;47863;55.766;37.672;2022-09-09T01:11:10;2.95;;;1.90;;
61905;SDS011;47863;55.766;37.672;2022-09-09T01:13:45;3.80;;;1.80;;
61905;SDS011;47863;55.766;37.672;2022-09-09T01:16:12;4.82;;;1.70;;
61905;SDS011;47863;55.766;37.672;2022-09-09T01:18:40;3.85;;;1.80;;
61905;SDS011;47863;55.766;37.672;2022-09-09T01:21:26;2.83;;;1.70;;
61905;SDS011;47863;55.766;37.672;2022-09-09T01:26:41;4.25;;;2.00;;
61905;SDS011;47863;55.766;37.672;2022-09-09T01:29:10;5.05;;;2.00;;
61905;SDS011;47863;55.766;37.672;2022-09-09T01:31:39;3.90;;;1.92;;
61905;SDS011;47863;55.766;37.672;2022-09-09T01:34:31;3.97;;;1.95;;
61905;SDS011;47863;55.766;37.672;2022-09-09T01:37:04;3.92;;;1.90;;
61905;SDS011;47863;55.766;37.672;2022-09-09T01:39:36;3.40;;;2.20;;
61905;SDS011;47863;55.766;37.672;2022-09-09T01:42:04;3.45;;;2.00;;
61905;SDS011;47863;55.766;37.672;2022-09-09T01:44:33;4.30;;;2.20;;
61905;SDS011;47863;55.766;37.672;2022-09-09T01:47:01;4.13;;;2.00;;
61905;SDS011;47863;55.766;37.672;2022-09-09T01:49:27;2.97;;;2.22;;
61905;SDS011;47863;55.766;37.672;2022-09-09T01:51:53;2.67;;;2.00;;
61905;SDS011;47863;55.766;37.672;2022-09-09T01:54:21;3.17;;;2.13;;
61905;SDS011;47863;55.766;37.672;2022-09-09T02:02:36;3.60;;;2.08;;
61905;SDS011;47863;55.766;37.672;2022-09-09T02:05:30;7.18;;;2.00;;
61905;SDS011;47863;55.766;37.672;2022-09-09T02:08:09;3.17;;;2.03;;
61905;SDS011;47863;55.766;37.672;2022-09-09T02:10:45;4.47;;;1.85;;
61905;SDS011;47863;55.766;37.672;2022-09-09T02:13:20;3.45;;;2.08;;
61905;SDS011;47863;55.766;37.672;2022-09-09T02:18:13;6.10;;;2.28;;
61905;SDS011;47863;55.766;37.672;2022-09-09T02:20:43;7.50;;;2.22;;
61905;SDS011;47863;55.766;37.672;2022-09-09T02:23:11;4.82;;;2.38;;
61905;SDS011;47863;55.766;37.672;2022-09-09T02:25:39;5.63;;;2.38;;
61905;SDS011;47863;55.766;37.672;2022-09-09T02:28:06;5.07;;;2.13;;
61905;SDS011;47863;55.766;37.672;2022-09-09T02:30:34;3.72;;;2.15;;
61905;SDS011;47863;55.766;37.672;2022-09-09T02:33:03;4.65;;;2.35;;
61905;SDS011;47863;55.766;37.672;2022-09-09T02:35:32;4.25;;;2.10;;
61905;SDS011;47863;55.766;37.672;2022-09-09T02:38:03;3.60;;;2.30;;
61905;SDS011;47863;55.766;37.672;2022-09-09T02:40:32;5.18;;;2.50;;
61905;SDS011;47863;55.766;37.672;2022-09-09T02:42:58;5.15;;;2.40;;
61905;SDS011;47863;55.766;37.672;2022-09-09T02:45:27;3.42;;;2.50;;
61905;SDS011;47863;55.766;37.672;2022-09-09T02:51:03;5.60;;;2.25;;
61905;SDS011;47863;55.766;37.672;2022-09-09T02:53:49;4.78;;;2.35;;
61905;SDS011;47863;55.766;37.672;2022-09-09T02:56:23;4.40;;;2.50;;
61905;SDS011;47863;55.766;37.672;2022-09-09T02:58:53;6.95;;;2.72;;
61905;SDS011;47863;55.766;37.672;2022-09-09T03:01:20;4.07;;;2.45;;
61905;SDS011;47863;55.766;37.672;2022-09-09T03:03:45;5.25;;;2.42;;
61905;SDS011;47863;55.766;37.672;2022-09-09T03:06:11;5.20;;;2.20;;
61905;SDS011;47863;55.766;37.672;2022-09-09T03:08:37;5.50;;;2.60;;
61905;SDS011;47863;55.766;37.672;2022-09-09T03:11:03;6.40;;;2.35;;
61905;SDS011;47863;55.766;37.672;2022-09-09T03:13:28;4.05;;;1.77;;
61905;SDS011;47863;55.766;37.672;2022-09-09T03:15:54;7.60;;;2.35;;
61905;SDS011;47863;55.766;37.672;2022-09-09T03:18:20;4.43;;;2.45;;
61905;SDS011;47863;55.766;37.672;2022-09-09T03:20:45;7.13;;;2.38;;
61905;SDS011;47863;55.766;37.672;2022-09-09T03:23:13;4.70;;;2.30;;
61905;SDS011;47863;55.766;37.672;2022-09-09T03:25:39;5.30;;;2.40;;
61905;SDS011;47863;55.766;37.672;2022-09-09T03:28:11;3.75;;;2.47;;
61905;SDS011;47863;55.766;37.672;2022-09-09T03:30:37;4.25;;;2.08;;
61905;SDS011;47863;55.766;37.672;2022-09-09T03:33:02;3.38;;;2.20;;
61905;SDS011;47863;55.766;37.672;2022-09-09T03:35:28;4.20;;;2.22;;
61905;SDS011;47863;55.766;37.672;2022-09-09T03:37:54;4.65;;;2.38;;
61905;SDS011;47863;55.766;37.672;2022-09-09T03:40:20;4.28;;;2.28;;
61905;SDS011;47863;55.766;37.672;2022-09-09T03:42:46;3.20;;;2.08;;
61905;SDS011;47863;55.766;37.672;2022-09-09T03:45:13;7.38;;;2.30;;
61905;SDS011;47863;55.766;37.672;2022-09-09T03:47:38;4.03;;;2.10;;
61905;SDS011;47863;55.766;37.672;2022-09-09T03:50:05;3.08;;;2.10;;
61905;SDS011;47863;55.766;37.672;2022-09-09T03:52:40;7.00;;;2.60;;
61905;SDS011;47863;55.766;37.672;2022-09-09T03:55:06;7.13;;;2.40;;
61905;SDS011;47863;55.766;37.672;2022-09-09T03:57:32;3.22;;;2.17;;
61905;SDS011;47863;55.766;37.672;2022-09-09T04:00:01;4.18;;;2.20;;
61905;SDS011;47863;55.766;37.672;2022-09-09T04:02:30;6.15;;;2.40;;
61905;SDS011;47863;55.766;37.672;2022-09-09T04:04:56;5.47;;;2.03;;
61905;SDS011;47863;55.766;37.672;2022-09-09T04:07:21;4.60;;;2.25;;
61905;SDS011;47863;55.766;37.672;2022-09-09T04:09:47;5.15;;;2.35;;
61905;SDS011;47863;55.766;37.672;2022-09-09T04:12:13;6.90;;;2.30;;
61905;SDS011;47863;55.766;37.672;2022-09-09T04:14:38;4.05;;;1.90;;
61905;SDS011;47863;55.766;37.672;2022-09-09T04:17:04;4.88;;;2.42;;
61905;SDS011;47863;55.766;37.672;2022-09-09T04:19:31;5.13;;;2.00;;
61905;SDS011;47863;55.766;37.672;2022-09-09T04:21:57;9.73;;;2.50;;
61905;SDS011;47863;55.766;37.672;2022-09-09T04:24:23;8.40;;;2.17;;
61905;SDS011;47863;55.766;37.672;2022-09-09T04:26:50;3.92;;;2.20;;
61905;SDS011;47863;55.766;37.672;2022-09-09T04:29:15;4.53;;;1.88;;
61905;SDS011;47863;55.766;37.672;2022-09-09T04:31:41;4.05;;;1.75;;
61905;SDS011;47863;55.766;37.672;2022-09-09T04:34:07;4.97;;;1.98;;
61905;SDS011;47863;55.766;37.672;2022-09-09T04:36:36;3.85;;;1.83;;
61905;SDS011;47863;55.766;37.672;2022-09-09T04:39:02;3.33;;;1.98;;
61905;SDS011;47863;55.766;37.672;2022-09-09T04:41:27;2.40;;;1.70;;
61905;SDS011;47863;55.766;37.672;2022-09-09T04:43:53;13.30;;;6.65;;
61905;SDS011;47863;55.766;37.672;2022-09-09T04:46:20;5.00;;;2.20;;
61905;SDS011;47863;55.766;37.672;2022-09-09T04:48:48;3.38;;;1.95;;
61905;SDS011;47863;55.766;37.672;2022-09-09T04:51:14;2.42;;;1.80;;
61905;SDS011;47863;55.766;37.672;2022-09-09T04:53:40;1.88;;;1.40;;
61905;SDS011;47863;55.766;37.672;2022-09-09T04:58:36;5.95;;;1.60;;
61905;SDS011;47863;55.766;37.672;2022-09-09T05:01:06;3.05;;;1.95;;
61905;SDS011;47863;55.766;37.672;2022-09-09T05:03:33;4.45;;;2.08;;
61905;SDS011;47863;55.766;37.672;2022-09-09T05:06:03;3.22;;;2.05;;
61905;SDS011;47863;55.766;37.672;2022-09-09T05:08:38;2.42;;;1.60;;
61905;SDS011;47863;55.766;37.672;2022-09-09T05:13:42;4.35;;;1.80;;
61905;SDS011;47863;55.766;37.672;2022-09-09T05:16:08;5.00;;;2.17;;
61905;SDS011;47863;55.766;37.672;2022-09-09T05:18:36;3.78;;;1.95;;
61905;SDS011;47863;55.766;37.672;2022-09-09T05:21:03;4.43;;;1.52;;
61905;SDS011;47863;55.766;37.672;2022-09-09T05:23:28;7.53;;;2.47;;
61905;SDS011;47863;55.766;37.672;2022-09-09T05:25:55;4.28;;;1.60;;
61905;SDS011;47863;55.766;37.672;2022-09-09T05:28:26;7.22;;;1.77;;
61905;SDS011;47863;55.766;37.672;2022-09-09T05:30:59;9.88;;;2.50;;
61905;SDS011;47863;55.766;37.672;2022-09-09T05:33:28;7.57;;;1.88;;
61905;SDS011;47863;55.766;37.672;2022-09-09T05:35:55;4.00;;;1.75;;
61905;SDS011;47863;55.766;37.672;2022-09-09T05:38:21;8.13;;;2.40;;
61905;SDS011;47863;55.766;37.672;2022-09-09T05:40:50;2.28;;;1.50;;
61905;SDS011;47863;55.766;37.672;2022-09-09T05:43:17;4.20;;;1.80;;
61905;SDS011;47863;55.766;37.672;2022-09-09T05:45:45;14.35;;;1.70;;
61905;SDS011;47863;55.766;37.672;2022-09-09T05:48:23;4.00;;;1.27;;
61905;SDS011;47863;55.766;37.672;2022-09-09T05:50:52;3.78;;;1.15;;
61905;SDS011;47863;55.766;37.672;2022-09-09T05:53:19;2.47;;;1.38;;
61905;SDS011;47863;55.766;37.672;2022-09-09T05:55:45;3.15;;;2.00;;
61905;SDS011;47863;55.766;37.672;2022-09-09T05:58:10;3.70;;;1.30;;
61905;SDS011;47863;55.766;37.672;2022-09-09T06:00:36;2.33;;;0.90;;
61905;SDS011;47863;55.766;37.672;2022-09-09T06:03:02;3.65;;;1.25;;
61905;SDS011;47863;55.766;37.672;2022-09-09T06:05:29;3.92;;;1.10;;
61905;SDS011;47863;55.766;37.672;2022-09-09T06:07:55;1.30;;;1.00;;
61905;SDS011;47863;55.766;37.672;2022-09-09T06:10:21;3.15;;;0.88;;
61905;SDS011;47863;55.766;37.672;2022-09-09T06:12:47;7.53;;;1.25;;
61905;SDS011;47863;55.766;37.672;2022-09-09T06:15:12;0.88;;;0.80;;
61905;SDS011;47863;55.766;37.672;2022-09-09T06:17:38;5.22;;;1.33;;
61905;SDS011;47863;55.766;37.672;2022-09-09T06:20:04;5.18;;;0.80;;
61905;SDS011;47863;55.766;37.672;2022-09-09T06:22:30;3.60;;;0.60;;
61905;SDS011;47863;55.766;37.672;2022-09-09T06:24:56;1.10;;;0.80;;
61905;SDS011;47863;55.766;37.672;2022-09-09T06:27:21;2.85;;;1.17;;
61905;SDS011;47863;55.766;37.672;2022-09-09T06:29:47;3.70;;;0.73;;
61905;SDS011;47863;55.766;37.672;2022-09-09T06:32:13;1.98;;;1.00;;
61905;SDS011;47863;55.766;37.672;2022-09-09T06:34:38;4.47;;;0.95;;
61905;SDS011;47863;55.766;37.672;2022-09-09T06:37:04;2.45;;;0.73;;
61905;SDS011;47863;55.766;37.672;2022-09-09T06:39:31;1.80;;;0.52;;
61905;SDS011;47863;55.766;37.672;2022-09-09T06:41:57;2.10;;;0.60;;
61905;SDS011;47863;55.766;37.672;2022-09-09T06:44:23;2.45;;;0.63;;
61905;SDS011;47863;55.766;37.672;2022-09-09T06:46:51;5.55;;;0.77;;
61905;SDS011;47863;55.766;37.672;2022-09-09T06:49:17;2.03;;;0.70;;
61905;SDS011;47863;55.766;37.672;2022-09-09T06:51:43;3.38;;;0.82;;
61905;SDS011;47863;55.766;37.672;2022-09-09T06:54:09;4.75;;;0.60;;
61905;SDS011;47863;55.766;37.672;2022-09-09T06:56:36;4.68;;;1.15;;
61905;SDS011;47863;55.766;37.672;2022-09-09T06:59:08;2.75;;;0.55;;
61905;SDS011;47863;55.766;37.672;2022-09-09T07:01:36;2.83;;;0.82;;
61905;SDS011;47863;55.766;37.672;2022-09-09T07:04:03;2.90;;;0.47;;
61905;SDS011;47863;55.766;37.672;2022-09-09T07:06:33;4.68;;;0.80;;
61905;SDS011;47863;55.766;37.672;2022-09-09T07:09:06;1.38;;;0.95;;
61905;SDS011;47863;55.766;37.672;2022-09-09T07:11:34;3.40;;;0.70;;
61905;SDS011;47863;55.766;37.672;2022-09-09T07:14:03;1.02;;;0.60;;
61905;SDS011;47863;55.766;37.672;2022-09-09T07:16:29;1.48;;;0.60;;
61905;SDS011;47863;55.766;37.672;2022-09-09T07:18:56;2.25;;;0.63;;
61905;SDS011;47863;55.766;37.672;2022-09-09T07:21:26;2.45;;;0.77;;
61905;SDS011;47863;55.766;37.672;2022-09-09T07:23:53;1.02;;;0.63;;
61905;SDS011;47863;55.766;37.672;2022-09-09T07:26:20;2.55;;;0.75;;
61905;SDS011;47863;55.766;37.672;2022-09-09T07:28:48;4.93;;;0.63;;
61905;SDS011;47863;55.766;37.672;2022-09-09T07:31:18;2.03;;;0.50;;
61905;SDS011;47863;55.766;37.672;2022-09-09T07:33:48;2.50;;;0.47;;
61905;SDS011;47863;55.766;37.672;2022-09-09T07:36:15;3.47;;;0.75;;
61905;SDS011;47863;55.766;37.672;2022-09-09T07:38:47;1.35;;;0.70;;
61905;SDS011;47863;55.766;37.672;2022-09-09T07:41:18;2.78;;;1.50;;
61905;SDS011;47863;55.766;37.672;2022-09-09T07:43:46;4.47;;;1.05;;
61905;SDS011;47863;55.766;37.672;2022-09-09T07:46:14;1.60;;;0.68;;
61905;SDS011;47863;55.766;37.672;2022-09-09T07:48:45;1.10;;;0.70;;
61905;SDS011;47863;55.766;37.672;2022-09-09T07:51:13;0.47;;;0.40;;
61905;SDS011;47863;55.766;37.672;2022-09-09T07:53:47;0.95;;;0.68;;
61905;SDS011;47863;55.766;37.672;2022-09-09T07:56:16;4.82;;;0.70;;
61905;SDS011;47863;55.766;37.672;2022-09-09T07:58:47;3.75;;;1.17;;
61905;SDS011;47863;55.766;37.672;2022-09-09T08:01:16;2.00;;;0.50;;
61905;SDS011;47863;55.766;37.672;2022-09-09T08:03:45;0.73;;;0.52;;
61905;SDS011;47863;55.766;37.672;2022-09-09T08:06:12;2.38;;;0.70;;
61905;SDS011;47863;55.766;37.672;2022-09-09T08:08:39;2.20;;;0.82;;
61905;SDS011;47863;55.766;37.672;2022-09-09T08:11:13;4.60;;;0.70;;
61905;SDS011;47863;55.766;37.672;2022-09-09T08:13:40;2.58;;;0.70;;
61905;SDS011;47863;55.766;37.672;2022-09-09T08:16:14;3.70;;;0.80;;
61905;SDS011;47863;55.766;37.672;2022-09-09T08:18:42;2.35;;;0.60;;
61905;SDS011;47863;55.766;37.672;2022-09-09T08:21:15;3.35;;;1.30;;
61905;SDS011;47863;55.766;37.672;2022-09-09T08:23:43;4.90;;;1.90;;
61905;SDS011;47863;55.766;37.672;2022-09-09T08:28:38;4.07;;;0.60;;
61905;SDS011;47863;55.766;37.672;2022-09-09T08:31:09;1.10;;;0.60;;
61905;SDS011;47863;55.766;37.672;2022-09-09T08:33:37;3.38;;;0.65;;
61905;SDS011;47863;55.766;37.672;2022-09-09T08:36:04;4.32;;;0.90;;
61905;SDS011;47863;55.766;37.672;2022-09-09T08:38:31;8.63;;;0.80;;
61905;SDS011;47863;55.766;37.672;2022-09-09T08:41:09;3.13;;;0.50;;
61905;SDS011;47863;55.766;37.672;2022-09-09T08:44:04;2.90;;;0.63;;
61905;SDS011;47863;55.766;37.672;2022-09-09T08:46:46;1.63;;;0.80;;
61905;SDS011;47863;55.766;37.672;2022-09-09T08:52:02;1.77;;;0.55;;
61905;SDS011;47863;55.766;37.672;2022-09-09T08:54:35;1.08;;;0.30;;
61905;SDS011;47863;55.766;37.672;2022-09-09T08:57:02;1.02;;;0.60;;
61905;SDS011;47863;55.766;37.672;2022-09-09T09:02:15;1.52;;;0.50;;
61905;SDS011;47863;55.766;37.672;2022-09-09T09:13:59;3.05;;;0.57;;
61905;SDS011;47863;55.766;37.672;2022-09-09T09:19:00;4.15;;;0.60;;
61905;SDS011;47863;55.766;37.672;2022-09-09T09:24:02;1.60;;;0.60;;
61905;SDS011;47863;55.766;37.672;2022-09-09T09:26:33;2.67;;;0.70;;
61905;SDS011;47863;55.766;37.672;2022-09-09T09:29:10;2.10;;;0.60;;
61905;SDS011;47863;55.766;37.672;2022-09-09T09:31:42;1.55;;;0.60;;
61905;SDS011;47863;55.766;37.672;2022-09-09T09:34:20;2.38;;;0.47;;
61905;SDS011;47863;55.766;37.672;2022-09-09T09:36:52;1.13;;;0.60;;
61905;SDS011;47863;55.766;37.672;2022-09-09T09:39:29;1.10;;;0.60;;
61905;SDS011;47863;55.766;37.672;2022-09-09T09:41:56;2.28;;;0.98;;
61905;SDS011;47863;55.766;37.672;2022-09-09T09:46:52;2.67;;;0.55;;
61905;SDS011;47863;55.766;37.672;2022-09-09T09:49:29;1.90;;;0.50;;
61905;SDS011;47863;55.766;37.672;2022-09-09T09:51:59;2.50;;;0.73;;
61905;SDS011;47863;55.766;37.672;2022-09-09T09:54:29;5.93;;;1.02;;
61905;SDS011;47863;55.766;37.672;2022-09-09T09:57:12;2.75;;;1.58;;
61905;SDS011;47863;55.766;37.672;2022-09-09T09:59:41;4.63;;;0.68;;
61905;SDS011;47863;55.766;37.672;2022-09-09T10:02:53;1.10;;;0.70;;
61905;SDS011;47863;55.766;37.672;2022-09-09T10:05:03;1.25;;;0.50;;
61905;SDS011;47863;55.766;37.672;2022-09-09T10:07:37;1.90;;;0.60;;
61905;SDS011;47863;55.766;37.672;2022-09-09T10:10:04;1.10;;;0.70;;
61905;SDS011;47863;55.766;37.672;2022-09-09T10:15:40;5.47;;;1.30;;
61905;SDS011;47863;55.766;37.672;2022-09-09T10:18:13;3.83;;;0.70;;
61905;SDS011;47863;55.766;37.672;2022-09-09T10:35:12;0.45;;;0.30;;
61905;SDS011;47863;55.766;37.672;2022-09-09T10:57:03;2.10;;;0.68;;
61905;SDS011;47863;55.766;37.672;2022-09-09T10:59:50;1.27;;;0.50;;
61905;SDS011;47863;55.766;37.672;2022-09-09T11:02:26;0.88;;;0.60;;
61905;SDS011;47863;55.766;37.672;2022-09-09T11:10:05;0.80;;;0.57;;
61905;SDS011;47863;55.766;37.672;2022-09-09T11:12:41;3.90;;;0.50;;
61905;SDS011;47863;55.766;37.672;2022-09-09T11:15:33;0.85;;;0.60;;
61905;SDS011;47863;55.766;37.672;2022-09-09T11:18:04;0.98;;;0.30;;
61905;SDS011;47863;55.766;37.672;2022-09-09T11:20:36;2.85;;;0.30;;
61905;SDS011;47863;55.766;37.672;2022-09-09T11:23:03;1.90;;;0.38;;
61905;SDS011;47863;55.766;37.672;2022-09-09T11:25:36;4.13;;;0.60;;
61905;SDS011;47863;55.766;37.672;2022-09-09T11:34:54;3.10;;;0.70;;
61905;SDS011;47863;55.766;37.672;2022-09-09T11:42:42;4.82;;;1.65;;
61905;SDS011;47863;55.766;37.672;2022-09-09T11:45:09;4.32;;;1.58;;
61905;SDS011;47863;55.766;37.672;2022-09-09T11:47:50;3.63;;;1.85;;
61905;SDS011;47863;55.766;37.672;2022-09-09T11:52:44;3.05;;;1.70;;
61905;SDS011;47863;55.766;37.672;2022-09-09T11:57:58;3.85;;;0.60;;
61905;SDS011;47863;55.766;37.672;2022-09-09T12:02:59;1.33;;;0.90;;
61905;SDS011;47863;55.766;37.672;2022-09-09T12:05:34;1.88;;;0.80;;
61905;SDS011;47863;55.766;37.672;2022-09-09T12:08:04;2.10;;;0.82;;
61905;SDS011;47863;55.766;37.672;2022-09-09T12:10:32;2.63;;;0.90;;
61905;SDS011;47863;55.766;37.672;2022-09-09T12:13:16;3.13;;;1.30;;
61905;SDS011;47863;55.766;37.672;2022-09-09T12:15:53;6.72;;;1.50;;
61905;SDS011;47863;55.766;37.672;2022-09-09T12:21:07;2.33;;;0.80;;
61905;SDS011;47863;55.766;37.672;2022-09-09T12:23:47;4.78;;;0.80;;
61905;SDS011;47863;55.766;37.672;2022-09-09T12:26:32;2.08;;;1.58;;
61905;SDS011;47863;55.766;37.672;2022-09-09T12:39:38;3.05;;;1.00;;
61905;SDS011;47863;55.766;37.672;2022-09-09T12:42:18;3.47;;;0.75;;
61905;SDS011;47863;55.766;37.672;2022-09-09T12:44:51;3.28;;;0.90;;
61905;SDS011;47863;55.766;37.672;2022-09-09T12:47:18;4.53;;;1.20;;
61905;SDS011;47863;55.766;37.672;2022-09-09T12:49:48;5.32;;;1.00;;
61905;SDS011;47863;55.766;37.672;2022-09-09T12:54:46;1.80;;;0.88;;
61905;SDS011;47863;55.766;37.672;2022-09-09T12:57:13;6.13;;;1.20;;
61905;SDS011;47863;55.766;37.672;2022-09-09T12:59:40;4.70;;;1.30;;
61905;SDS011;47863;55.766;37.672;2022-09-09T13:02:25;5.22;;;1.10;;
61905;SDS011;47863;55.766;37.672;2022-09-09T13:04:52;3.53;;;1.40;;
61905;SDS011;47863;55.766;37.672;2022-09-09T13:07:20;1.85;;;1.27;;
61905;SDS011;47863;55.766;37.672;2022-09-09T13:09:47;2.22;;;1.15;;
61905;SDS011;47863;55.766;37.672;2022-09-09T13:12:15;1.02;;;0.70;;
61905;SDS011;47863;55.766;37.672;2022-09-09T13:14:44;1.42;;;1.10;;
61905;SDS011;47863;55.766;37.672;2022-09-09T13:17:26;2.03;;;0.98;;
61905;SDS011;47863;55.766;37.672;2022-09-09T13:19:56;6.40;;;4.20;;
61905;SDS011;47863;55.766;37.672;2022-09-09T13:25:05;5.78;;;1.10;;
61905;SDS011;47863;55.766;37.672;2022-09-09T13:27:32;3.92;;;1.00;;
61905;SDS011;47863;55.766;37.672;2022-09-09T13:30:00;5.40;;;1.08;;
61905;SDS011;47863;55.766;37.672;2022-09-09T13:32:26;2.90;;;0.90;;
61905;SDS011;47863;55.766;37.672;2022-09-09T13:34:53;4.25;;;1.15;;
61905;SDS011;47863;55.766;37.672;2022-09-09T13:37:36;3.60;;;1.40;;
61905;SDS011;47863;55.766;37.672;2022-09-09T13:40:04;6.22;;;2.17;;
61905;SDS011;47863;55.766;37.672;2022-09-09T13:42:32;10.25;;;1.90;;
61905;SDS011;47863;55.766;37.672;2022-09-09T13:45:01;4.95;;;1.30;;
61905;SDS011;47863;55.766;37.672;2022-09-09T13:47:33;4.95;;;1.10;;
61905;SDS011;47863;55.766;37.672;2022-09-09T13:52:57;5.30;;;1.58;;
61905;SDS011;47863;55.766;37.672;2022-09-09T13:55:24;3.88;;;1.27;;
61905;SDS011;47863;55.766;37.672;2022-09-09T13:57:52;2.53;;;0.82;;
61905;SDS011;47863;55.766;37.672;2022-09-09T14:00:22;2.90;;;1.20;;
61905;SDS011;47863;55.766;37.672;2022-09-09T14:02:49;4.95;;;2.55;;
61905;SDS011;47863;55.766;37.672;2022-09-09T14:05:15;5.68;;;2.00;;
61905;SDS011;47863;55.766;37.672;2022-09-09T14:07:42;1.95;;;1.02;;
61905;SDS011;47863;55.766;37.672;2022-09-09T14:10:09;3.20;;;0.90;;
61905;SDS011;47863;55.766;37.672;2022-09-09T14:12:36;3.83;;;1.02;;
61905;SDS011;47863;55.766;37.672;2022-09-09T14:15:03;3.95;;;1.00;;
61905;SDS011;47863;55.766;37.672;2022-09-09T14:17:30;4.70;;;1.00;;
61905;SDS011;47863;55.766;37.672;2022-09-09T14:19:56;3.67;;;1.33;;
61905;SDS011;47863;55.766;37.672;2022-09-09T14:22:23;7.72;;;1.50;;
61905;SDS011;47863;55.766;37.672;2022-09-09T14:24:49;1.80;;;1.00;;
61905;SDS011;47863;55.766;37.672;2022-09-09T14:27:16;2.45;;;1.10;;
61905;SDS011;47863;55.766;37.672;2022-09-09T14:29:41;2.67;;;1.10;;
61905;SDS011;47863;55.766;37.672;2022-09-09T14:32:09;7.32;;;1.10;;
61905;SDS011;47863;55.766;37.672;2022-09-09T14:34:35;2.25;;;0.90;;
61905;SDS011;47863;55.766;37.672;2022-09-09T14:37:01;2.65;;;1.20;;
61905;SDS011;47863;55.766;37.672;2022-09-09T14:39:26;5.15;;;1.75;;
61905;SDS011;47863;55.766;37.672;2022-09-09T14:41:52;4.20;;;1.20;;
61905;SDS011;47863;55.766;37.672;2022-09-09T14:44:17;2.78;;;1.27;;
61905;SDS011;47863;55.766;37.672;2022-09-09T14:46:43;4.53;;;1.33;;
61905;SDS011;47863;55.766;37.672;2022-09-09T14:49:09;4.93;;;1.48;;
61905;SDS011;47863;55.766;37.672;2022-09-09T14:51:38;7.80;;;1.00;;
61905;SDS011;47863;55.766;37.672;2022-09-09T14:54:04;10.10;;;1.50;;
61905;SDS011;47863;55.766;37.672;2022-09-09T14:56:31;5.55;;;1.30;;
61905;SDS011;47863;55.766;37.672;2022-09-09T14:59:00;1.80;;;1.02;;
61905;SDS011;47863;55.766;37.672;2022-09-09T15:01:26;7.18;;;2.75;;
61905;SDS011;47863;55.766;37.672;2022-09-09T15:04:02;4.70;;;1.30;;
61905;SDS011;47863;55.766;37.672;2022-09-09T15:06:30;3.58;;;1.20;;
61905;SDS011;47863;55.766;37.672;2022-09-09T15:08:58;5.00;;;0.80;;
61905;SDS011;47863;55.766;37.672;2022-09-09T15:11:29;1.80;;;0.80;;
61905;SDS011;47863;55.766;37.672;2022-09-09T15:13:56;1.90;;;0.98;;
61905;SDS011;47863;55.766;37.672;2022-09-09T15:16:23;2.85;;;1.00;;
61905;SDS011;47863;55.766;37.672;2022-09-09T15:18:52;6.35;;;3.50;;
61905;SDS011;47863;55.766;37.672;2022-09-09T15:21:21;5.75;;;1.60;;
61905;SDS011;47863;55.766;37.672;2022-09-09T15:23:49;10.30;;;6.70;;
61905;SDS011;47863;55.766;37.672;2022-09-09T15:26:15;6.53;;;1.80;;
61905;SDS011;47863;55.766;37.672;2022-09-09T15:28:42;2.33;;;1.30;;
61905;SDS011;47863;55.766;37.672;2022-09-09T15:31:11;5.88;;;1.30;;
61905;SDS011;47863;55.766;37.672;2022-09-09T15:33:39;4.35;;;1.50;;
61905;SDS011;47863;55.766;37.672;2022-09-09T15:36:15;9.07;;;3.63;;
61905;SDS011;47863;55.766;37.672;2022-09-09T15:38:45;6.53;;;2.30;;
61905;SDS011;47863;55.766;37.672;2022-09-09T15:41:12;3.38;;;1.30;;
61905;SDS011;47863;55.766;37.672;2022-09-09T15:43:38;3.22;;;1.23;;
61905;SDS011;47863;55.766;37.672;2022-09-09T15:48:43;5.80;;;1.45;;
61905;SDS011;47863;55.766;37.672;2022-09-09T15:51:10;2.70;;;1.20;;
61905;SDS011;47863;55.766;37.672;2022-09-09T15:53:39;7.47;;;1.42;;
61905;SDS011;47863;55.766;37.672;2022-09-09T15:56:05;9.40;;;2.05;;
61905;SDS011;47863;55.766;37.672;2022-09-09T15:58:32;7.95;;;4.07;;
61905;SDS011;47863;55.766;37.672;2022-09-09T16:01:02;9.10;;;1.70;;
61905;SDS011;47863;55.766;37.672;2022-09-09T16:03:30;5.00;;;1.63;;
61905;SDS011;47863;55.766;37.672;2022-09-09T16:06:07;5.82;;;1.70;;
61905;SDS011;47863;55.766;37.672;2022-09-09T16:08:38;5.18;;;2.30;;
61905;SDS011;47863;55.766;37.672;2022-09-09T16:11:08;5.80;;;1.70;;
61905;SDS011;47863;55.766;37.672;2022-09-09T16:13:37;8.77;;;2.20;;
61905;SDS011;47863;55.766;37.672;2022-09-09T16:16:05;10.48;;;1.88;;
61905;SDS011;47863;55.766;37.672;2022-09-09T16:18:39;6.75;;;2.38;;
61905;SDS011;47863;55.766;37.672;2022-09-09T16:21:06;3.33;;;1.90;;
61905;SDS011;47863;55.766;37.672;2022-09-09T16:23:33;12.63;;;4.38;;
61905;SDS011;47863;55.766;37.672;2022-09-09T16:25:59;11.27;;;2.60;;
61905;SDS011;47863;55.766;37.672;2022-09-09T16:28:26;8.00;;;2.90;;
61905;SDS011;47863;55.766;37.672;2022-09-09T16:30:52;12.18;;;5.85;;
61905;SDS011;47863;55.766;37.672;2022-09-09T16:33:18;8.35;;;3.47;;
61905;SDS011;47863;55.766;37.672;2022-09-09T16:35:44;13.27;;;2.70;;
61905;SDS011;47863;55.766;37.672;2022-09-09T16:38:10;7.78;;;2.78;;
61905;SDS011;47863;55.766;37.672;2022-09-09T16:40:36;11.35;;;4.20;;
61905;SDS011;47863;55.766;37.672;2022-09-09T16:43:03;5.43;;;2.30;;
61905;SDS011;47863;55.766;37.672;2022-09-09T16:45:30;18.20;;;3.70;;
61905;SDS011;47863;55.766;37.672;2022-09-09T16:47:57;7.13;;;2.22;;
61905;SDS011;47863;55.766;37.672;2022-09-09T16:50:23;6.03;;;2.75;;
61905;SDS011;47863;55.766;37.672;2022-09-09T16:52:50;11.75;;;3.85;;
61905;SDS011;47863;55.766;37.672;2022-09-09T16:55:16;8.68;;;2.63;;
61905;SDS011;47863;55.766;37.672;2022-09-09T16:57:42;12.68;;;5.18;;
61905;SDS011;47863;55.766;37.672;2022-09-09T17:00:07;14.50;;;5.57;;
61905;SDS011;47863;55.766;37.672;2022-09-09T17:02:33;10.43;;;2.65;;
61905;SDS011;47863;55.766;37.672;2022-09-09T17:04:59;9.73;;;4.07;;
61905;SDS011;47863;55.766;37.672;2022-09-09T17:07:25;9.50;;;3.38;;
61905;SDS011;47863;55.766;37.672;2022-09-09T17:09:50;13.77;;;3.97;;
61905;SDS011;47863;55.766;37.672;2022-09-09T17:12:16;17.05;;;3.70;;
61905;SDS011;47863;55.766;37.672;2022-09-09T17:14:42;10.55;;;3.67;;
61905;SDS011;47863;55.766;37.672;2022-09-09T17:17:07;7.70;;;3.13;;
61905;SDS011;47863;55.766;37.672;2022-09-09T17:19:33;7.72;;;3.15;;
61905;SDS011;47863;55.766;37.672;2022-09-09T17:22:02;6.93;;;3.17;;
61905;SDS011;47863;55.766;37.672;2022-09-09T17:24:27;10.80;;;2.67;;